Argos, Indiana
Current Conditions -  °F | °C
As of 11:35 PM on Saturday 25 Oct 2014 (Local Time) from KRCR Reporting Station
Clear Clear  
Wind Chill: 55°   Ceiling: Unl
Heat Index: 55°   Visibility: 10mi
Dew Point: 32°   Wind: 6mph
Humidity: 41%   Direction: 300°WNW
Pressure: 29.94"   Gusts: NA
Location:  41.23°N, 86.24°W
Report Text: KRCR 260335Z AUTO 30005KT 10SM CLR 13/00 A2994 RMK AO2
Loading
Personal Weather Stations






























Interactive Weather Map New forecast layout! Learn more

10-Day Weather Forecast

Advertisements
Track Severe Weather on mobile